Time;durP1;ratioP1;P1;durP2;ratioP2;P2;SDS_P1;SDS_P2;PMS_P1;PMS_P2;Temp;Humidity;BMP_temperature;BMP_pressure;BME280_temperature;BME280_humidity;BME280_pressure;Samples;Min_cycle;Max_cycle;Signal;HPM_P1;HPM_P2
2022/03/23 00:00:57;;;;;;;3.47;3.37;;;19.00;61.10;;;;;;5024729;28;43923;-76
2022/03/23 00:03:26;;;;;;;4.20;4.00;;;18.90;61.00;;;;;;5024962;28;43890;-77
2022/03/23 00:05:55;;;;;;;4.13;3.90;;;18.90;61.00;;;;;;5025600;28;43764;-77
2022/03/23 00:08:27;;;;;;;3.93;3.73;;;18.80;61.10;;;;;;5029070;28;44017;-76
2022/03/23 00:10:55;;;;;;;4.30;4.10;;;18.80;61.30;;;;;;5010051;28;45736;-77
2022/03/23 00:13:23;;;;;;;3.80;3.70;;;18.80;61.50;;;;;;5010632;28;44136;-76
2022/03/23 00:15:51;;;;;;;3.57;3.47;;;18.70;61.50;;;;;;5028006;28;43851;-77
2022/03/23 00:18:19;;;;;;;4.10;3.90;;;18.70;61.60;;;;;;4993656;28;44248;-77
2022/03/23 00:20:47;;;;;;;3.67;3.57;;;18.70;61.80;;;;;;5008331;28;43958;-76
2022/03/23 00:23:16;;;;;;;4.30;4.10;;;18.60;61.70;;;;;;5008640;28;43945;-77
2022/03/23 00:25:44;;;;;;;4.33;4.03;;;18.60;61.90;;;;;;5008569;28;43944;-76
2022/03/23 00:28:12;;;;;;;4.20;4.00;;;18.70;62.00;;;;;;4990692;28;44004;-76
2022/03/23 00:30:40;;;;;;;4.00;3.70;;;18.80;61.90;;;;;;5008090;28;43751;-77
2022/03/23 00:33:30;;;;;;;4.00;3.90;;;19.00;61.60;;;;;;4996014;28;45330;-76
2022/03/23 00:35:58;;;;;;;4.40;4.20;;;19.10;61.00;;;;;;5009132;28;44019;-77
2022/03/23 00:38:27;;;;;;;3.97;3.80;;;19.20;60.50;;;;;;5027769;28;43956;-76
2022/03/23 00:40:56;;;;;;;4.27;4.07;;;19.20;60.40;;;;;;5008547;28;45944;-76
2022/03/23 00:43:24;;;;;;;3.80;3.70;;;19.10;60.40;;;;;;5027198;28;43901;-77
2022/03/23 00:45:51;;;;;;;4.30;4.10;;;19.10;60.60;;;;;;5026761;28;43519;-77
2022/03/23 00:48:20;;;;;;;3.90;3.80;;;19.00;60.80;;;;;;5027292;28;44338;-76
2022/03/23 00:50:48;;;;;;;4.20;4.00;;;18.90;61.00;;;;;;5008850;28;44104;-76
2022/03/23 00:53:17;;;;;;;4.00;3.90;;;18.80;61.10;;;;;;5002121;28;44527;-76
2022/03/23 00:55:49;;;;;;;4.00;3.90;;;18.80;61.30;;;;;;4989825;28;44471;-76
2022/03/23 00:58:17;;;;;;;4.30;4.03;;;18.70;61.40;;;;;;4997199;28;44106;-76
2022/03/23 01:00:45;;;;;;;3.73;3.63;;;18.70;61.80;;;;;;5026634;28;44014;-76
2022/03/23 01:03:13;;;;;;;4.30;4.07;;;18.80;61.90;;;;;;5026684;28;44000;-76
2022/03/23 01:05:41;;;;;;;4.30;4.10;;;18.90;61.50;;;;;;5020307;28;43995;-76
2022/03/23 01:08:11;;;;;;;4.30;4.00;;;18.90;61.20;;;;;;4989916;28;43910;-76
2022/03/23 01:10:39;;;;;;;4.40;4.20;;;18.90;61.10;;;;;;5007608;28;43899;-76
2022/03/23 01:13:09;;;;;;;4.30;4.20;;;18.90;61.10;;;;;;5007473;28;44069;-77
2022/03/23 01:15:37;;;;;;;4.00;3.90;;;18.80;61.20;;;;;;5008620;28;43969;-76
2022/03/23 01:18:06;;;;;;;4.23;4.13;;;18.80;61.40;;;;;;5041450;28;43881;-76
2022/03/23 01:20:35;;;;;;;3.97;3.87;;;18.70;61.50;;;;;;5046969;28;43936;-77
2022/03/23 01:23:03;;;;;;;4.33;4.20;;;18.70;61.60;;;;;;5027940;28;44495;-77
2022/03/23 01:25:31;;;;;;;4.20;4.00;;;18.60;61.70;;;;;;5028779;28;44008;-76
2022/03/23 01:27:59;;;;;;;4.50;4.30;;;18.60;61.70;;;;;;5045532;28;43478;-77
2022/03/23 01:30:28;;;;;;;3.77;3.67;;;18.60;61.80;;;;;;5027141;28;44996;-77
2022/03/23 01:32:56;;;;;;;4.30;4.10;;;18.50;61.90;;;;;;5008910;28;45169;-77
2022/03/23 01:35:27;;;;;;;4.20;3.90;;;18.60;62.20;;;;;;5009253;28;43893;-76
2022/03/23 01:37:55;;;;;;;4.47;4.10;;;18.70;62.00;;;;;;5008890;28;43825;-77
2022/03/23 01:40:23;;;;;;;4.47;4.27;;;18.90;61.70;;;;;;5026913;28;43946;-77
2022/03/23 01:42:51;;;;;;;4.20;4.00;;;19.00;61.20;;;;;;5008507;28;44859;-77
2022/03/23 01:45:19;;;;;;;4.20;4.10;;;19.10;60.80;;;;;;5009063;28;44095;-76
2022/03/23 01:47:49;;;;;;;4.40;4.20;;;19.10;60.80;;;;;;5027113;28;43961;-76
2022/03/23 01:50:19;;;;;;;4.13;4.03;;;19.00;60.60;;;;;;5008702;28;45025;-76
2022/03/23 01:52:47;;;;;;;3.80;3.70;;;18.90;60.80;;;;;;5026026;28;44164;-76
2022/03/23 01:55:17;;;;;;;4.07;3.90;;;18.80;60.90;;;;;;5026658;28;44004;-77
2022/03/23 01:57:46;;;;;;;3.90;3.80;;;18.80;61.20;;;;;;5008738;28;43977;-77
2022/03/23 02:00:17;;;;;;;4.37;4.27;;;18.70;61.30;;;;;;5008591;28;43862;-76
2022/03/23 02:02:50;;;;;;;3.83;3.73;;;18.70;61.60;;;;;;5007928;28;43960;-77
2022/03/23 02:05:19;;;;;;;4.20;4.10;;;18.60;61.60;;;;;;5008700;28;43972;-76
2022/03/23 02:07:51;;;;;;;4.53;4.33;;;18.60;62.00;;;;;;5008642;28;43460;-76
2022/03/23 02:10:19;;;;;;;4.60;4.40;;;18.60;62.20;;;;;;5025907;28;43908;-76
2022/03/23 02:13:05;;;;;;;4.23;4.13;;;18.80;62.00;;;;;;5026344;28;44136;-76
2022/03/23 02:15:33;;;;;;;4.57;4.43;;;18.80;61.40;;;;;;5009120;28;43484;-77
2022/03/23 02:18:02;;;;;;;4.30;4.20;;;18.90;61.30;;;;;;5008931;28;44015;-76
2022/03/23 02:20:30;;;;;;;4.17;4.07;;;18.80;61.10;;;;;;5027626;28;45543;-77
2022/03/23 02:23:00;;;;;;;4.03;3.93;;;18.80;61.30;;;;;;5027035;28;44293;-76
2022/03/23 02:25:29;;;;;;;4.43;4.33;;;18.70;61.40;;;;;;5045819;28;43955;-76
2022/03/23 02:27:57;;;;;;;4.10;4.00;;;18.70;61.60;;;;;;5045988;28;44016;-76
2022/03/23 02:30:25;;;;;;;4.20;4.10;;;18.60;61.60;;;;;;5027215;28;46607;-76
2022/03/23 02:32:53;;;;;;;4.10;4.00;;;18.60;61.80;;;;;;5044784;28;44073;-76
2022/03/23 02:35:21;;;;;;;4.40;4.30;;;18.50;61.80;;;;;;5026983;28;43960;-76
2022/03/23 02:37:49;;;;;;;3.93;3.83;;;18.50;61.90;;;;;;5045214;28;44290;-76
2022/03/23 02:40:18;;;;;;;4.10;4.00;;;18.50;62.00;;;;;;5026966;28;46159;-76
2022/03/23 02:42:46;;;;;;;4.43;4.23;;;18.50;62.20;;;;;;5026170;28;45745;-76
2022/03/23 02:45:14;;;;;;;4.10;4.00;;;18.50;62.20;;;;;;5045385;28;44032;-76
2022/03/23 02:47:42;;;;;;;4.13;4.03;;;18.70;62.10;;;;;;5045296;28;43394;-77
2022/03/23 02:50:11;;;;;;;4.27;4.07;;;18.90;61.70;;;;;;5026768;28;45341;-76
2022/03/23 03:01:52;;;;;;;4.10;4.00;;;19.00;61.10;;;;;;5044420;28;44096;-76
2022/03/23 03:03:55;;;;;;;4.23;4.10;;;18.90;60.70;;;;;;5025389;28;43980;-76
2022/03/23 03:06:23;;;;;;;4.10;4.00;;;18.80;61.00;;;;;;5019512;28;43930;-76
2022/03/23 03:08:51;;;;;;;4.00;3.90;;;18.70;61.20;;;;;;5032383;28;43448;-76
2022/03/23 03:11:21;;;;;;;4.37;4.27;;;18.70;61.40;;;;;;5045291;28;43949;-76
2022/03/23 03:13:50;;;;;;;3.80;3.70;;;18.60;61.50;;;;;;5018924;28;44100;-76
2022/03/23 03:16:18;;;;;;;4.40;4.30;;;18.60;61.70;;;;;;5025315;28;44118;-76
2022/03/23 03:18:47;;;;;;;4.40;4.30;;;18.50;62.10;;;;;;5026166;28;43914;-76
2022/03/23 03:21:15;;;;;;;4.60;4.43;;;18.60;62.10;;;;;;5025791;28;43757;-76
2022/03/23 03:23:44;;;;;;;4.23;4.13;;;18.80;61.70;;;;;;5025660;28;44417;-75
2022/03/23 03:26:12;;;;;;;4.37;4.27;;;18.80;61.50;;;;;;5026201;28;44065;-77
2022/03/23 03:28:42;;;;;;;4.10;4.00;;;18.80;61.20;;;;;;5025779;28;43470;-75
2022/03/23 03:31:11;;;;;;;4.37;4.27;;;18.80;61.30;;;;;;5025990;28;43960;-75
2022/03/23 03:33:39;;;;;;;4.60;4.50;;;18.70;61.30;;;;;;5024635;28;44089;-75
2022/03/23 03:36:07;;;;;;;4.10;4.00;;;18.60;61.40;;;;;;5007982;28;43884;-75
2022/03/23 03:38:35;;;;;;;4.20;4.10;;;18.60;61.70;;;;;;5026038;28;43840;-75
2022/03/23 03:41:03;;;;;;;4.13;4.03;;;18.50;61.70;;;;;;5008340;28;45702;-75
2022/03/23 03:43:31;;;;;;;4.20;4.10;;;18.50;61.90;;;;;;5028667;28;44065;-77
2022/03/23 03:46:01;;;;;;;4.60;4.40;;;18.40;61.90;;;;;;5010740;28;43445;-75
2022/03/23 03:48:29;;;;;;;4.40;4.30;;;18.40;62.00;;;;;;5029159;28;44070;-75
2022/03/23 03:50:59;;;;;;;4.53;4.43;;;18.40;62.20;;;;;;5028332;28;43965;-75
2022/03/23 03:53:27;;;;;;;4.93;4.73;;;18.40;62.30;;;;;;5028317;28;44113;-76
2022/03/23 03:56:05;;;;;;;4.47;4.37;;;18.50;62.30;;;;;;5028533;28;43977;-75
2022/03/23 03:58:33;;;;;;;4.57;4.37;;;18.70;62.00;;;;;;5027120;28;43997;-75
2022/03/23 04:01:03;;;;;;;4.10;4.00;;;18.90;61.60;;;;;;5047680;28;43903;-75
2022/03/23 04:03:31;;;;;;;4.30;4.20;;;19.00;61.00;;;;;;5047593;28;44063;-76
2022/03/23 04:05:59;;;;;;;4.53;4.43;;;19.10;60.70;;;;;;5029819;28;43978;-75
2022/03/23 04:08:27;;;;;;;4.23;4.13;;;19.10;60.60;;;;;;5044674;28;43965;-76
2022/03/23 04:10:55;;;;;;;4.60;4.40;;;19.00;60.60;;;;;;5028362;28;43979;-78
2022/03/23 04:13:23;;;;;;;3.90;3.80;;;18.90;60.70;;;;;;5028027;28;43903;-78
2022/03/23 04:15:54;;;;;;;4.20;4.00;;;18.80;60.90;;;;;;5028397;28;43941;-77
2022/03/23 04:18:24;;;;;;;4.50;4.30;;;18.70;61.20;;;;;;5028478;28;43918;-75
2022/03/23 04:20:52;;;;;;;4.30;4.20;;;18.70;61.40;;;;;;5009977;28;45586;-77
2022/03/23 04:23:20;;;;;;;4.33;4.23;;;18.60;61.50;;;;;;5028566;28;44369;-78
2022/03/23 04:25:48;;;;;;;4.97;4.77;;;18.50;61.60;;;;;;5009745;28;43881;-75
2022/03/23 04:28:16;;;;;;;4.87;4.73;;;18.50;62.00;;;;;;5028523;28;44066;-75
2022/03/23 04:30:44;;;;;;;4.70;4.60;;;18.60;62.10;;;;;;5045296;28;44542;-76
2022/03/23 04:33:12;;;;;;;4.40;4.30;;;18.70;61.60;;;;;;5029104;28;44820;-75
2022/03/23 04:35:41;;;;;;;4.40;4.30;;;18.80;61.40;;;;;;5047125;28;44017;-74
2022/03/23 04:38:09;;;;;;;4.07;3.97;;;18.80;61.20;;;;;;5047882;28;44075;-74
2022/03/23 04:40:37;;;;;;;4.20;4.10;;;18.80;61.20;;;;;;5028376;28;45564;-75
2022/03/23 04:43:05;;;;;;;4.20;4.10;;;18.70;61.20;;;;;;5046860;28;44127;-75
2022/03/23 04:45:33;;;;;;;4.90;4.70;;;18.60;61.40;;;;;;5047698;28;44019;-75
2022/03/23 04:48:02;;;;;;;4.13;4.03;;;18.60;61.60;;;;;;5047700;28;44110;-75
2022/03/23 04:50:30;;;;;;;4.30;4.20;;;18.50;61.60;;;;;;5029514;28;43854;-78
2022/03/23 04:52:59;;;;;;;4.50;4.40;;;18.50;61.80;;;;;;5026070;28;44078;-75
2022/03/23 04:55:27;;;;;;;4.50;4.40;;;18.50;61.90;;;;;;5027505;28;43946;-79
2022/03/23 04:57:55;;;;;;;4.47;4.37;;;18.50;62.00;;;;;;5027799;28;43817;-76
2022/03/23 05:00:23;;;;;;;5.23;5.03;;;18.40;62.00;;;;;;5009619;28;45650;-76
2022/03/23 05:02:51;;;;;;;4.73;4.60;;;18.50;62.40;;;;;;5039117;28;43876;-76
2022/03/23 05:05:19;;;;;;;4.40;4.30;;;18.60;62.30;;;;;;5028619;28;43991;-76
2022/03/23 05:07:47;;;;;;;4.83;4.63;;;18.70;61.80;;;;;;5046779;28;43956;-77
2022/03/23 05:10:16;;;;;;;4.83;4.63;;;18.90;61.40;;;;;;5046773;28;44055;-77
2022/03/23 05:12:45;;;;;;;4.40;4.30;;;19.10;60.90;;;;;;5028083;28;45006;-77
2022/03/23 05:15:14;;;;;;;4.30;4.20;;;19.10;60.50;;;;;;5046762;28;44008;-77
2022/03/23 05:17:42;;;;;;;11.57;5.23;;;19.10;60.40;;;;;;5004561;28;44090;-77
2022/03/23 05:20:11;;;;;;;4.80;4.50;;;19.00;60.50;;;;;;5007853;28;43966;-77
2022/03/23 05:22:39;;;;;;;5.10;4.30;;;18.90;60.70;;;;;;4989291;28;44659;-77
2022/03/23 05:25:07;;;;;;;4.87;4.47;;;18.80;60.90;;;;;;5006398;28;43929;-77
2022/03/23 05:27:37;;;;;;;4.70;4.40;;;18.70;61.10;;;;;;5008206;28;43309;-78
2022/03/23 05:30:07;;;;;;;5.03;4.73;;;18.70;61.30;;;;;;4989637;28;45618;-77
2022/03/23 05:32:36;;;;;;;4.90;4.70;;;18.60;61.40;;;;;;5001204;28;43823;-77
2022/03/23 05:35:04;;;;;;;5.03;4.90;;;18.60;61.60;;;;;;5007611;28;43921;-78
2022/03/23 05:37:32;;;;;;;4.93;4.70;;;18.50;62.00;;;;;;4984028;28;44007;-77
2022/03/23 05:40:00;;;;;;;5.37;4.97;;;18.60;62.00;;;;;;5000820;28;43982;-78
2022/03/23 05:42:28;;;;;;;5.43;5.03;;;18.70;61.50;;;;;;5015435;28;43906;-78
2022/03/23 05:44:58;;;;;;;5.00;4.80;;;18.80;61.20;;;;;;4999406;28;43989;-75
2022/03/23 05:47:26;;;;;;;4.73;4.23;;;18.80;61.20;;;;;;5027155;28;43856;-76
2022/03/23 05:49:54;;;;;;;4.33;4.20;;;18.70;61.20;;;;;;5025978;28;44082;-79
2022/03/23 05:52:22;;;;;;;4.77;4.57;;;18.60;61.30;;;;;;5007680;28;45794;-78
2022/03/23 05:54:50;;;;;;;4.70;4.40;;;18.60;61.50;;;;;;5012455;28;43453;-78
2022/03/23 05:57:18;;;;;;;4.27;4.07;;;18.50;61.60;;;;;;5020752;28;43879;-78
2022/03/23 05:59:47;;;;;;;4.83;4.53;;;18.50;61.70;;;;;;5025324;28;43994;-78
2022/03/23 06:02:16;;;;;;;4.73;4.57;;;18.40;61.70;;;;;;5008008;28;45335;-77
2022/03/23 06:04:45;;;;;;;4.53;4.33;;;18.40;61.90;;;;;;5025370;28;44021;-77
2022/03/23 06:07:12;;;;;;;5.27;4.87;;;18.40;61.90;;;;;;5008702;28;43521;-78
2022/03/23 06:09:40;;;;;;;5.23;4.90;;;18.40;61.90;;;;;;5025557;28;43958;-78
2022/03/23 06:12:12;;;;;;;5.40;4.90;;;18.40;62.20;;;;;;5025991;28;44144;-78
2022/03/23 06:14:42;;;;;;;5.10;4.80;;;18.50;62.10;;;;;;5025817;28;43786;-79
2022/03/23 06:17:10;;;;;;;4.80;4.40;;;18.70;61.80;;;;;;5019119;28;43982;-78
2022/03/23 06:19:39;;;;;;;5.33;4.90;;;18.80;61.20;;;;;;5022858;28;45662;-79
2022/03/23 06:22:07;;;;;;;5.37;5.00;;;19.00;60.80;;;;;;5045746;28;43483;-78
2022/03/23 06:24:43;;;;;;;5.50;5.03;;;19.00;60.30;;;;;;5045140;28;44020;-79
2022/03/23 06:27:11;;;;;;;6.13;5.63;;;19.00;60.10;;;;;;5046144;28;43866;-79
2022/03/23 06:29:39;;;;;;;5.50;5.20;;;18.90;60.20;;;;;;5045640;28;44182;-78
2022/03/23 06:32:08;;;;;;;5.97;5.67;;;18.80;60.40;;;;;;5045532;28;44098;-78
2022/03/23 06:34:37;;;;;;;5.63;5.33;;;18.70;60.50;;;;;;5027315;28;43965;-78
2022/03/23 06:37:08;;;;;;;6.63;6.23;;;18.60;60.50;;;;;;5028384;28;43921;-77
2022/03/23 06:39:36;;;;;;;6.53;6.23;;;18.50;60.40;;;;;;5028915;28;44207;-78
2022/03/23 06:42:04;;;;;;;7.10;6.70;;;18.50;60.60;;;;;;5026506;28;44020;-78
2022/03/23 06:44:32;;;;;;;6.60;6.10;;;18.50;60.80;;;;;;5026247;28;43993;-78
2022/03/23 06:47:03;;;;;;;7.30;6.80;;;18.40;61.20;;;;;;5008122;28;43958;-78
2022/03/23 06:49:31;;;;;;;7.57;6.97;;;18.50;61.60;;;;;;5026069;28;44013;-78
2022/03/23 06:51:59;;;;;;;7.50;6.90;;;18.60;61.40;;;;;;5025679;28;43958;-78
2022/03/23 06:54:28;;;;;;;7.13;6.63;;;18.70;61.10;;;;;;5008098;28;44077;-78
2022/03/23 06:56:56;;;;;;;8.20;7.40;;;18.70;60.60;;;;;;5043260;28;43843;-78
2022/03/23 06:59:24;;;;;;;7.27;6.60;;;18.60;60.60;;;;;;5026081;28;46803;-78
2022/03/23 07:01:52;;;;;;;7.00;6.60;;;18.60;60.80;;;;;;5044669;28;43969;-78
2022/03/23 07:04:24;;;;;;;7.43;6.97;;;18.50;60.90;;;;;;5026875;28;44379;-78
2022/03/23 07:06:52;;;;;;;7.40;6.90;;;18.50;61.20;;;;;;5026755;28;43997;-77
2022/03/23 07:12:08;;;;;;;7.47;6.87;;;18.40;61.40;;;;;;5026825;28;44129;-77
2022/03/23 07:14:37;;;;;;;7.20;6.70;;;18.40;61.60;;;;;;5040377;28;44361;-79
2022/03/23 07:17:05;;;;;;;7.70;7.23;;;18.30;61.60;;;;;;5027755;28;43921;-78
2022/03/23 07:19:34;;;;;;;8.13;7.53;;;18.30;61.70;;;;;;5029636;28;44821;-78
2022/03/23 07:22:02;;;;;;;7.50;7.03;;;18.30;62.00;;;;;;5028931;28;43937;-78
2022/03/23 07:24:32;;;;;;;7.93;7.33;;;18.40;62.00;;;;;;5037241;28;44008;-77
2022/03/23 07:27:01;;;;;;;7.80;7.30;;;18.50;61.60;;;;;;5048618;28;44289;-77
2022/03/23 07:29:50;;;;;;;16.83;8.40;;;18.70;61.00;;;;;;5047928;28;43992;-79
2022/03/23 07:32:18;;;;;;;9.83;8.60;;;18.90;60.10;;;;;;5048083;28;44164;-77
2022/03/23 07:34:46;;;;;;;9.33;8.53;;;18.90;59.90;;;;;;5029112;28;43965;-77
2022/03/23 07:37:14;;;;;;;8.90;8.00;;;18.80;59.90;;;;;;5048686;28;43907;-78
2022/03/23 07:39:42;;;;;;;8.07;7.47;;;18.70;60.10;;;;;;5029228;28;43927;-79
2022/03/23 07:42:11;;;;;;;7.80;7.30;;;18.70;60.40;;;;;;5048347;28;44259;-78
2022/03/23 07:44:39;;;;;;;7.80;7.20;;;18.60;60.70;;;;;;5048068;28;43994;-78
2022/03/23 07:47:10;;;;;;;8.77;8.03;;;18.50;60.90;;;;;;5048618;28;44312;-78
2022/03/23 07:49:38;;;;;;;9.20;8.40;;;18.40;61.00;;;;;;5028899;28;44027;-77
2022/03/23 07:52:06;;;;;;;8.17;7.67;;;18.40;61.20;;;;;;5029505;28;44797;-77
2022/03/23 07:54:34;;;;;;;8.50;7.80;;;18.40;61.40;;;;;;5047979;28;43976;-77
2022/03/23 07:57:02;;;;;;;8.53;7.80;;;18.30;61.70;;;;;;5030039;28;44040;-78
2022/03/23 07:59:30;;;;;;;8.03;7.33;;;18.40;61.90;;;;;;5048035;28;43996;-77
2022/03/23 08:01:59;;;;;;;9.00;8.30;;;18.50;61.70;;;;;;5047710;28;43901;-78
2022/03/23 08:04:28;;;;;;;9.00;7.90;;;18.70;61.40;;;;;;5047608;28;44079;-79
2022/03/23 08:06:57;;;;;;;9.20;8.30;;;18.80;60.90;;;;;;5017452;28;44300;-77
2022/03/23 08:09:25;;;;;;;16.37;9.23;;;18.80;61.40;;;;;;5028526;28;43973;-80
2022/03/23 08:11:53;;;;;;;12.77;9.17;;;18.80;60.40;;;;;;5011132;28;45088;-78
2022/03/23 08:14:21;;;;;;;9.03;8.27;;;18.70;60.40;;;;;;5010330;28;43911;-78
2022/03/23 08:16:49;;;;;;;9.33;8.43;;;18.60;60.60;;;;;;5027903;28;43826;-77
2022/03/23 08:19:17;;;;;;;9.40;8.40;;;18.60;60.90;;;;;;5010252;28;46747;-76
2022/03/23 08:21:47;;;;;;;9.37;8.57;;;18.50;61.10;;;;;;5027907;28;43996;-76
2022/03/23 08:24:17;;;;;;;10.27;9.27;;;18.40;61.20;;;;;;5028395;28;44007;-77
2022/03/23 08:26:45;;;;;;;8.70;8.00;;;18.40;61.50;;;;;;5021588;28;43951;-78
2022/03/23 08:29:16;;;;;;;10.47;8.63;;;18.40;61.60;;;;;;5035260;28;43964;-77
2022/03/23 08:31:43;;;;;;;9.50;8.70;;;18.40;61.90;;;;;;5046842;28;43996;-77
2022/03/23 08:34:12;;;;;;;9.83;8.93;;;18.40;62.20;;;;;;5029600;28;44431;-80
2022/03/23 08:36:40;;;;;;;9.13;8.43;;;18.50;62.00;;;;;;5047757;28;43926;-78
2022/03/23 08:39:09;;;;;;;12.10;9.80;;;18.60;61.50;;;;;;5047138;28;44919;-75
2022/03/23 08:41:37;;;;;;;10.27;9.27;;;18.60;61.10;;;;;;5047207;28;43995;-77
2022/03/23 08:44:06;;;;;;;9.30;8.50;;;18.60;61.10;;;;;;5040211;28;43959;-77
2022/03/23 08:46:34;;;;;;;10.00;9.07;;;18.50;61.10;;;;;;5028489;28;44194;-77
2022/03/23 08:49:02;;;;;;;9.93;9.20;;;18.50;61.20;;;;;;5041102;28;44506;-78
2022/03/23 08:51:30;;;;;;;9.60;8.63;;;18.40;61.30;;;;;;5047619;28;44112;-77
2022/03/23 08:53:58;;;;;;;9.73;8.93;;;18.40;61.50;;;;;;5039837;28;43420;-77
2022/03/23 08:56:27;;;;;;;9.43;8.63;;;18.40;61.70;;;;;;5041852;28;44196;-77
2022/03/23 08:58:55;;;;;;;10.47;9.23;;;18.40;61.80;;;;;;5047197;28;44391;-79
2022/03/23 09:01:23;;;;;;;9.97;8.97;;;18.30;61.80;;;;;;5047119;28;43413;-77
2022/03/23 09:03:53;;;;;;;9.40;8.50;;;18.40;62.10;;;;;;5028318;28;44080;-77
2022/03/23 09:06:21;;;;;;;10.07;9.10;;;18.30;62.10;;;;;;5047063;28;44080;-79
2022/03/23 09:08:49;;;;;;;8.93;8.20;;;18.30;62.20;;;;;;5045307;28;43886;-77
2022/03/23 09:11:17;;;;;;;9.70;8.80;;;18.50;62.20;;;;;;5009375;28;45782;-77
2022/03/23 09:13:47;;;;;;;9.40;8.50;;;18.60;62.40;;;;;;5016720;28;44021;-79
2022/03/23 09:16:15;;;;;;;9.63;8.80;;;18.80;61.10;;;;;;5046724;28;43447;-79
2022/03/23 09:18:43;;;;;;;8.97;8.27;;;19.00;60.70;;;;;;5046156;28;44021;-80
2022/03/23 09:21:13;;;;;;;9.37;8.57;;;19.00;60.40;;;;;;5028009;28;43842;-77
2022/03/23 09:23:42;;;;;;;8.50;8.00;;;18.90;60.30;;;;;;5045983;28;43910;-77
2022/03/23 09:26:11;;;;;;;8.80;8.07;;;18.90;60.50;;;;;;5047060;28;43890;-77
2022/03/23 09:28:39;;;;;;;8.93;8.27;;;18.80;61.40;;;;;;5012831;28;46466;-77
2022/03/23 09:31:08;;;;;;;8.93;8.03;;;18.70;61.00;;;;;;5026956;28;44126;-77
2022/03/23 09:33:36;;;;;;;8.77;7.90;;;18.60;61.40;;;;;;5029299;28;43437;-77
2022/03/23 09:36:05;;;;;;;8.47;7.80;;;18.50;61.50;;;;;;5046799;28;43996;-79
2022/03/23 09:38:31;;;;;;;8.97;8.17;;;18.50;61.80;;;;;;5027565;28;45444;-80
2022/03/23 09:40:59;;;;;;;8.43;7.83;;;18.50;62.00;;;;;;5027515;28;44751;-78
2022/03/23 09:43:27;;;;;;;8.93;8.23;;;18.50;62.30;;;;;;5046464;28;44080;-80
2022/03/23 09:45:56;;;;;;;8.57;7.97;;;18.60;62.10;;;;;;5030930;28;43402;-79
2022/03/23 09:48:31;;;;;;;15.43;8.93;;;18.70;61.70;;;;;;5026999;28;44379;-77
2022/03/23 09:51:00;;;;;;;11.33;8.60;;;18.70;60.80;;;;;;5026310;28;43913;-77
2022/03/23 09:53:28;;;;;;;9.27;7.90;;;18.70;60.60;;;;;;5026812;28;43396;-79
2022/03/23 09:55:56;;;;;;;13.80;8.67;;;18.60;60.80;;;;;;5026867;28;44075;-77
2022/03/23 09:58:25;;;;;;;12.40;8.87;;;18.60;61.00;;;;;;5026640;28;44003;-79
2022/03/23 10:00:54;;;;;;;9.20;8.30;;;18.50;61.20;;;;;;5012033;28;45828;-77
2022/03/23 10:04:05;;;;;;;21.07;9.17;;;18.50;61.40;;;;;;5045826;28;43949;-78
2022/03/23 10:06:55;;;;;;;10.47;8.50;;;18.40;61.60;;;;;;5028584;28;43845;-77
2022/03/23 10:10:05;;;;;;;8.97;8.13;;;18.40;61.90;;;;;;5027658;28;45702;-77
2022/03/23 10:13:22;;;;;;;9.27;8.20;;;18.40;62.20;;;;;;5046436;28;43838;-76
2022/03/23 10:16:28;;;;;;;11.83;8.83;;;18.30;62.20;;;;;;5040332;28;43958;-77
2022/03/23 10:18:57;;;;;;;10.13;8.10;;;18.40;62.60;;;;;;5026023;28;44094;-78
2022/03/23 10:21:26;;;;;;;9.33;8.03;;;18.50;62.30;;;;;;5008161;28;45768;-77
2022/03/23 10:24:33;;;;;;;8.30;7.70;;;18.70;61.90;;;;;;5025718;28;43911;-79
2022/03/23 10:27:06;;;;;;;7.90;7.20;;;18.90;61.40;;;;;;5007860;28;43803;-78
2022/03/23 10:29:40;;;;;;;8.47;7.77;;;19.00;61.00;;;;;;5026746;28;44032;-78
2022/03/23 10:32:09;;;;;;;8.00;7.20;;;18.90;60.80;;;;;;5025696;28;44151;-78
2022/03/23 10:34:39;;;;;;;7.47;6.93;;;18.90;61.10;;;;;;5025624;28;43997;-78
2022/03/23 10:37:07;;;;;;;7.83;7.20;;;18.80;61.40;;;;;;5025933;28;43930;-78
2022/03/23 10:39:35;;;;;;;8.20;7.50;;;18.70;61.70;;;;;;5007823;28;44061;-79
2022/03/23 10:42:07;;;;;;;7.50;6.90;;;18.60;61.90;;;;;;5007579;28;45701;-77
2022/03/23 10:44:35;;;;;;;12.10;8.03;;;18.60;62.20;;;;;;5025650;28;44053;-78
2022/03/23 10:47:03;;;;;;;7.43;6.83;;;18.60;62.40;;;;;;5025835;28;43969;-78
2022/03/23 10:49:33;;;;;;;7.67;7.07;;;18.50;62.50;;;;;;5025763;28;43883;-75
2022/03/23 10:52:14;;;;;;;7.70;7.00;;;18.50;62.70;;;;;;5025107;28;43955;-76
2022/03/23 10:54:53;;;;;;;7.40;6.80;;;18.40;62.90;;;;;;5025313;28;43772;-76
2022/03/23 10:57:21;;;;;;;7.00;6.57;;;18.60;62.70;;;;;;5026267;28;43934;-77
2022/03/23 10:59:49;;;;;;;7.23;6.67;;;18.70;62.30;;;;;;5025093;28;43929;-78
2022/03/23 11:02:19;;;;;;;7.37;6.77;;;18.70;62.00;;;;;;5025131;28;43878;-78
2022/03/23 11:04:50;;;;;;;7.17;6.57;;;18.70;62.10;;;;;;5025097;28;44049;-77
2022/03/23 11:07:27;;;;;;;6.57;6.07;;;18.60;62.30;;;;;;5007330;28;44037;-79
2022/03/23 11:18:09;;;;;;;6.30;5.90;;;18.50;63.10;;;;;;5023156;28;44005;-77
2022/03/23 11:20:44;;;;;;;6.80;6.23;;;18.50;63.20;;;;;;5025973;28;44048;-77
2022/03/23 11:23:23;;;;;;;6.20;5.80;;;18.40;63.20;;;;;;5026034;28;45025;-77
2022/03/23 11:25:51;;;;;;;7.60;6.13;;;18.40;63.20;;;;;;5000498;28;45616;-77
2022/03/23 11:28:26;;;;;;;7.73;6.93;;;18.40;63.40;;;;;;5015736;28;43471;-79
2022/03/23 11:30:55;;;;;;;6.67;6.20;;;18.50;63.40;;;;;;5031085;28;44500;-77
2022/03/23 11:33:25;;;;;;;7.00;6.43;;;18.70;63.00;;;;;;5026560;28;43930;-79
2022/03/23 11:35:53;;;;;;;6.20;5.80;;;18.90;62.40;;;;;;5043834;28;44566;-79
2022/03/23 11:38:25;;;;;;;8.87;6.50;;;19.10;62.00;;;;;;5026501;28;43953;-79
2022/03/23 11:40:55;;;;;;;7.27;6.57;;;19.10;61.50;;;;;;5026502;28;43986;-77
2022/03/23 11:43:23;;;;;;;6.80;6.00;;;19.10;61.40;;;;;;5044767;28;43568;-78
2022/03/23 11:46:12;;;;;;;6.97;6.33;;;19.10;61.60;;;;;;5026140;28;44660;-79
2022/03/23 11:48:49;;;;;;;7.23;6.60;;;18.90;61.80;;;;;;5044156;28;43981;-79
2022/03/23 11:51:25;;;;;;;7.20;6.50;;;18.90;62.20;;;;;;5000538;28;44092;-77
2022/03/23 11:54:01;;;;;;;7.30;6.20;;;18.80;62.40;;;;;;5006058;28;46063;-79
2022/03/23 11:56:36;;;;;;;7.53;6.10;;;18.70;62.50;;;;;;5025650;28;43895;-77
2022/03/23 11:59:21;;;;;;;6.37;5.70;;;18.70;62.80;;;;;;5025169;28;43576;-79
2022/03/23 12:01:50;;;;;;;7.50;6.80;;;18.60;62.80;;;;;;5025946;28;44041;-80
2022/03/23 12:04:19;;;;;;;9.47;6.00;;;18.60;63.10;;;;;;5028464;28;43970;-80
2022/03/23 12:06:47;;;;;;;7.03;6.23;;;18.70;63.00;;;;;;5028237;28;43993;-77
2022/03/23 12:09:36;;;;;;;6.37;5.83;;;18.80;62.60;;;;;;5015991;28;43989;-75
2022/03/23 12:12:05;;;;;;;6.93;6.20;;;18.90;62.40;;;;;;5048417;28;43382;-76
2022/03/23 12:14:35;;;;;;;6.87;6.27;;;18.80;62.40;;;;;;5029449;28;45667;-77
2022/03/23 12:17:14;;;;;;;6.37;5.80;;;18.80;62.50;;;;;;5047307;28;43834;-77
2022/03/23 12:20:03;;;;;;;7.33;6.07;;;18.70;62.60;;;;;;5047444;28;44036;-76
2022/03/23 12:23:00;;;;;;;7.27;6.57;;;18.70;62.70;;;;;;5020663;28;43493;-78
2022/03/23 12:25:36;;;;;;;8.27;6.37;;;18.60;62.80;;;;;;5028000;28;43916;-76
2022/03/23 12:28:27;;;;;;;6.77;6.17;;;18.60;62.90;;;;;;5033110;28;43748;-77
2022/03/23 12:31:19;;;;;;;6.70;6.17;;;18.50;62.90;;;;;;5044920;28;43996;-78
2022/03/23 12:34:14;;;;;;;7.07;6.37;;;18.50;62.90;;;;;;5014438;28;44154;-77
2022/03/23 12:37:00;;;;;;;7.20;6.00;;;18.50;63.00;;;;;;5028757;28;45682;-76
2022/03/23 12:39:38;;;;;;;7.00;6.40;;;18.50;63.10;;;;;;5046945;28;44036;-77
2022/03/23 12:42:18;;;;;;;6.70;6.10;;;18.60;62.90;;;;;;5028576;28;44035;-77
2022/03/23 12:44:47;;;;;;;9.20;6.07;;;18.80;62.40;;;;;;5028147;28;43454;-77
2022/03/23 12:47:17;;;;;;;6.53;5.93;;;19.00;61.90;;;;;;5027758;28;43878;-77
2022/03/23 12:58:26;;;;;;;7.40;6.53;;;19.00;61.30;;;;;;4910252;28;45644;-77
2022/03/23 13:00:55;;;;;;;6.10;5.60;;;18.90;61.60;;;;;;4992821;28;43871;-77
2022/03/23 13:03:59;;;;;;;6.33;5.77;;;18.80;61.90;;;;;;5027856;28;43981;-77
2022/03/23 13:06:35;;;;;;;5.73;5.33;;;18.80;62.20;;;;;;5009893;28;44183;-78
2022/03/23 13:09:04;;;;;;;5.93;5.40;;;18.70;62.30;;;;;;5027176;28;44021;-78
2022/03/23 13:11:34;;;;;;;5.90;5.50;;;18.70;62.50;;;;;;5027402;28;43985;-77
2022/03/23 13:14:04;;;;;;;6.57;5.63;;;18.60;62.70;;;;;;5007914;28;43370;-77
2022/03/23 13:16:33;;;;;;;5.70;5.30;;;18.70;62.70;;;;;;5027857;28;43911;-77
2022/03/23 13:19:02;;;;;;;5.97;5.47;;;18.80;62.30;;;;;;5008715;28;46206;-77
2022/03/23 13:21:33;;;;;;;5.57;5.27;;;18.80;62.00;;;;;;5027334;28;43934;-78
2022/03/23 13:24:03;;;;;;;5.80;5.37;;;18.80;62.00;;;;;;5009060;28;44150;-79
2022/03/23 13:26:32;;;;;;;5.37;5.07;;;18.80;62.10;;;;;;5027767;28;43816;-77
2022/03/23 13:29:07;;;;;;;5.87;5.30;;;18.70;62.20;;;;;;5008731;28;44253;-76
2022/03/23 13:31:36;;;;;;;5.90;5.43;;;18.70;62.40;;;;;;5002970;28;46110;-77